sensor_id;sensor_type;location;lat;lon;timestamp;temperature;humidity
8436;DHT22;4255;48.730;9.156;2023-04-24T00:02:14;11.10;99.90
8436;DHT22;4255;48.730;9.156;2023-04-24T00:04:41;11.10;99.90
8436;DHT22;4255;48.730;9.156;2023-04-24T00:07:10;11.10;99.90
8436;DHT22;4255;48.730;9.156;2023-04-24T00:09:36;11.20;99.90
8436;DHT22;4255;48.730;9.156;2023-04-24T00:12:01;11.00;99.90
8436;DHT22;4255;48.730;9.156;2023-04-24T00:14:30;11.20;99.90
8436;DHT22;4255;48.730;9.156;2023-04-24T00:16:55;11.10;99.90
8436;DHT22;4255;48.730;9.156;2023-04-24T00:19:21;11.10;99.90
8436;DHT22;4255;48.730;9.156;2023-04-24T00:21:47;11.00;99.90
8436;DHT22;4255;48.730;9.156;2023-04-24T00:24:16;11.10;99.90
8436;DHT22;4255;48.730;9.156;2023-04-24T00:26:42;11.20;99.90
8436;DHT22;4255;48.730;9.156;2023-04-24T00:29:07;11.20;99.90
8436;DHT22;4255;48.730;9.156;2023-04-24T00:31:33;11.20;99.90
8436;DHT22;4255;48.730;9.156;2023-04-24T00:34:02;11.20;99.90
8436;DHT22;4255;48.730;9.156;2023-04-24T00:36:28;11.30;99.90
8436;DHT22;4255;48.730;9.156;2023-04-24T00:38:54;11.30;99.90
8436;DHT22;4255;48.730;9.156;2023-04-24T00:41:21;11.30;99.90
8436;DHT22;4255;48.730;9.156;2023-04-24T00:43:47;11.30;99.90
8436;DHT22;4255;48.730;9.156;2023-04-24T00:46:13;11.40;99.90
8436;DHT22;4255;48.730;9.156;2023-04-24T00:48:40;11.40;99.90
8436;DHT22;4255;48.730;9.156;2023-04-24T00:51:05;11.40;99.90
8436;DHT22;4255;48.730;9.156;2023-04-24T00:53:31;11.50;99.90
8436;DHT22;4255;48.730;9.156;2023-04-24T00:55:58;11.60;99.90
8436;DHT22;4255;48.730;9.156;2023-04-24T00:58:24;11.60;99.90
8436;DHT22;4255;48.730;9.156;2023-04-24T01:00:50;11.70;99.90
8436;DHT22;4255;48.730;9.156;2023-04-24T01:03:22;11.70;99.90
8436;DHT22;4255;48.730;9.156;2023-04-24T01:05:50;11.80;99.90
8436;DHT22;4255;48.730;9.156;2023-04-24T01:08:16;11.80;99.90
8436;DHT22;4255;48.730;9.156;2023-04-24T01:10:44;11.80;99.90
8436;DHT22;4255;48.730;9.156;2023-04-24T01:13:10;11.80;99.90
8436;DHT22;4255;48.730;9.156;2023-04-24T01:15:36;11.80;99.90
8436;DHT22;4255;48.730;9.156;2023-04-24T01:18:02;11.80;99.90
8436;DHT22;4255;48.730;9.156;2023-04-24T01:20:28;11.90;99.90
8436;DHT22;4255;48.730;9.156;2023-04-24T01:22:55;11.90;99.90
8436;DHT22;4255;48.730;9.156;2023-04-24T01:25:22;11.80;99.90
8436;DHT22;4255;48.730;9.156;2023-04-24T01:27:47;11.80;99.90
8436;DHT22;4255;48.730;9.156;2023-04-24T01:30:14;11.90;99.90
8436;DHT22;4255;48.730;9.156;2023-04-24T01:32:40;12.00;99.90
8436;DHT22;4255;48.730;9.156;2023-04-24T01:35:09;12.00;99.90
8436;DHT22;4255;48.730;9.156;2023-04-24T01:37:35;12.00;99.90
8436;DHT22;4255;48.730;9.156;2023-04-24T01:40:03;12.00;99.90
8436;DHT22;4255;48.730;9.156;2023-04-24T01:42:29;12.10;99.90
8436;DHT22;4255;48.730;9.156;2023-04-24T01:44:55;12.20;99.90
8436;DHT22;4255;48.730;9.156;2023-04-24T01:47:22;12.00;99.90
8436;DHT22;4255;48.730;9.156;2023-04-24T01:49:48;11.90;99.90
8436;DHT22;4255;48.730;9.156;2023-04-24T01:52:15;11.70;99.90
8436;DHT22;4255;48.730;9.156;2023-04-24T01:54:41;11.60;99.90
8436;DHT22;4255;48.730;9.156;2023-04-24T01:57:07;11.70;99.90
8436;DHT22;4255;48.730;9.156;2023-04-24T01:59:34;11.70;99.90
8436;DHT22;4255;48.730;9.156;2023-04-24T02:02:02;11.70;99.90
8436;DHT22;4255;48.730;9.156;2023-04-24T02:04:28;11.80;99.90
8436;DHT22;4255;48.730;9.156;2023-04-24T02:10:16;11.60;99.90
8436;DHT22;4255;48.730;9.156;2023-04-24T02:12:41;11.60;99.90
8436;DHT22;4255;48.730;9.156;2023-04-24T02:15:07;11.60;99.90
8436;DHT22;4255;48.730;9.156;2023-04-24T02:17:33;11.60;99.90
8436;DHT22;4255;48.730;9.156;2023-04-24T02:19:59;11.50;99.90
8436;DHT22;4255;48.730;9.156;2023-04-24T02:22:24;11.40;99.90
8436;DHT22;4255;48.730;9.156;2023-04-24T02:24:50;11.40;99.90
8436;DHT22;4255;48.730;9.156;2023-04-24T02:27:15;11.40;99.90
8436;DHT22;4255;48.730;9.156;2023-04-24T02:29:41;11.50;99.90
8436;DHT22;4255;48.730;9.156;2023-04-24T02:32:07;11.40;99.90
8436;DHT22;4255;48.730;9.156;2023-04-24T02:34:34;11.30;99.90
8436;DHT22;4255;48.730;9.156;2023-04-24T02:37:00;11.30;99.90
8436;DHT22;4255;48.730;9.156;2023-04-24T02:39:25;11.30;99.90
8436;DHT22;4255;48.730;9.156;2023-04-24T02:41:51;11.30;99.90
8436;DHT22;4255;48.730;9.156;2023-04-24T02:44:16;11.30;99.90
8436;DHT22;4255;48.730;9.156;2023-04-24T02:46:43;11.40;99.90
8436;DHT22;4255;48.730;9.156;2023-04-24T02:49:08;11.40;99.90
8436;DHT22;4255;48.730;9.156;2023-04-24T02:51:34;11.50;99.90
8436;DHT22;4255;48.730;9.156;2023-04-24T02:53:59;11.60;99.90
8436;DHT22;4255;48.730;9.156;2023-04-24T02:56:25;11.70;99.90
8436;DHT22;4255;48.730;9.156;2023-04-24T02:58:50;11.80;99.90
8436;DHT22;4255;48.730;9.156;2023-04-24T03:01:16;11.70;99.90
8436;DHT22;4255;48.730;9.156;2023-04-24T03:03:43;11.80;99.90
8436;DHT22;4255;48.730;9.156;2023-04-24T03:06:08;11.70;99.90
8436;DHT22;4255;48.730;9.156;2023-04-24T03:08:34;11.60;99.90
8436;DHT22;4255;48.730;9.156;2023-04-24T03:11:00;11.60;99.90
8436;DHT22;4255;48.730;9.156;2023-04-24T03:13:26;11.50;99.90
8436;DHT22;4255;48.730;9.156;2023-04-24T03:15:51;11.40;99.90
8436;DHT22;4255;48.730;9.156;2023-04-24T03:18:18;11.30;99.90
8436;DHT22;4255;48.730;9.156;2023-04-24T03:20:45;11.30;99.90
8436;DHT22;4255;48.730;9.156;2023-04-24T03:23:11;11.20;99.90
8436;DHT22;4255;48.730;9.156;2023-04-24T03:25:37;11.10;99.90
8436;DHT22;4255;48.730;9.156;2023-04-24T03:28:02;11.00;99.90
8436;DHT22;4255;48.730;9.156;2023-04-24T03:30:28;11.00;99.90
8436;DHT22;4255;48.730;9.156;2023-04-24T03:32:54;10.90;99.90
8436;DHT22;4255;48.730;9.156;2023-04-24T03:35:19;10.80;99.90
8436;DHT22;4255;48.730;9.156;2023-04-24T03:37:46;10.90;99.90
8436;DHT22;4255;48.730;9.156;2023-04-24T03:40:12;10.90;99.90
8436;DHT22;4255;48.730;9.156;2023-04-24T03:42:37;11.00;99.90
8436;DHT22;4255;48.730;9.156;2023-04-24T03:45:03;11.00;99.90
8436;DHT22;4255;48.730;9.156;2023-04-24T03:47:29;11.10;99.90
8436;DHT22;4255;48.730;9.156;2023-04-24T03:49:54;11.00;99.90
8436;DHT22;4255;48.730;9.156;2023-04-24T03:52:21;11.10;99.90
8436;DHT22;4255;48.730;9.156;2023-04-24T03:54:46;11.10;99.90
8436;DHT22;4255;48.730;9.156;2023-04-24T03:57:12;11.20;99.90
8436;DHT22;4255;48.730;9.156;2023-04-24T03:59:37;11.10;99.90
8436;DHT22;4255;48.730;9.156;2023-04-24T04:02:03;10.90;99.90
8436;DHT22;4255;48.730;9.156;2023-04-24T04:04:28;10.90;99.90
8436;DHT22;4255;48.730;9.156;2023-04-24T04:06:54;10.90;99.90
8436;DHT22;4255;48.730;9.156;2023-04-24T04:09:20;11.00;99.90
8436;DHT22;4255;48.730;9.156;2023-04-24T04:11:45;11.00;99.90
8436;DHT22;4255;48.730;9.156;2023-04-24T04:14:11;11.00;99.90
8436;DHT22;4255;48.730;9.156;2023-04-24T04:16:37;11.00;99.90
8436;DHT22;4255;48.730;9.156;2023-04-24T04:19:03;11.00;99.90
8436;DHT22;4255;48.730;9.156;2023-04-24T04:21:29;11.00;99.90
8436;DHT22;4255;48.730;9.156;2023-04-24T04:23:56;11.10;99.90
8436;DHT22;4255;48.730;9.156;2023-04-24T04:26:22;11.00;99.90
8436;DHT22;4255;48.730;9.156;2023-04-24T04:28:53;11.00;99.90
8436;DHT22;4255;48.730;9.156;2023-04-24T04:31:20;10.80;99.90
8436;DHT22;4255;48.730;9.156;2023-04-24T04:33:46;10.70;99.90
8436;DHT22;4255;48.730;9.156;2023-04-24T04:36:12;10.30;99.90
8436;DHT22;4255;48.730;9.156;2023-04-24T04:38:37;9.80;99.90
8436;DHT22;4255;48.730;9.156;2023-04-24T04:41:03;9.60;99.90
8436;DHT22;4255;48.730;9.156;2023-04-24T04:43:29;9.40;99.90
8436;DHT22;4255;48.730;9.156;2023-04-24T04:45:57;9.30;99.90
8436;DHT22;4255;48.730;9.156;2023-04-24T04:48:23;9.20;99.90
8436;DHT22;4255;48.730;9.156;2023-04-24T04:50:48;9.30;99.90
8436;DHT22;4255;48.730;9.156;2023-04-24T04:53:14;9.20;99.90
8436;DHT22;4255;48.730;9.156;2023-04-24T04:55:40;9.30;99.90
8436;DHT22;4255;48.730;9.156;2023-04-24T04:58:06;9.30;99.90
8436;DHT22;4255;48.730;9.156;2023-04-24T05:00:31;9.30;99.90
8436;DHT22;4255;48.730;9.156;2023-04-24T05:03:01;9.30;99.90
8436;DHT22;4255;48.730;9.156;2023-04-24T05:05:26;9.50;99.90
8436;DHT22;4255;48.730;9.156;2023-04-24T05:07:52;9.60;99.90
8436;DHT22;4255;48.730;9.156;2023-04-24T05:10:18;9.70;99.90
8436;DHT22;4255;48.730;9.156;2023-04-24T05:12:43;9.80;99.90
8436;DHT22;4255;48.730;9.156;2023-04-24T05:15:09;9.70;99.90
8436;DHT22;4255;48.730;9.156;2023-04-24T05:17:35;9.60;99.90
8436;DHT22;4255;48.730;9.156;2023-04-24T05:20:02;9.60;99.90
8436;DHT22;4255;48.730;9.156;2023-04-24T05:22:31;9.40;99.90
8436;DHT22;4255;48.730;9.156;2023-04-24T05:24:56;9.50;99.90
8436;DHT22;4255;48.730;9.156;2023-04-24T05:27:22;9.50;99.90
8436;DHT22;4255;48.730;9.156;2023-04-24T05:29:48;9.50;99.90
8436;DHT22;4255;48.730;9.156;2023-04-24T05:32:13;9.50;99.90
8436;DHT22;4255;48.730;9.156;2023-04-24T05:34:39;9.50;99.90
8436;DHT22;4255;48.730;9.156;2023-04-24T05:37:05;9.70;99.90
8436;DHT22;4255;48.730;9.156;2023-04-24T05:39:33;9.60;99.90
8436;DHT22;4255;48.730;9.156;2023-04-24T05:42:00;9.60;99.90
8436;DHT22;4255;48.730;9.156;2023-04-24T05:44:26;9.70;99.90
8436;DHT22;4255;48.730;9.156;2023-04-24T05:46:52;9.80;99.90
8436;DHT22;4255;48.730;9.156;2023-04-24T05:49:18;9.90;99.90
8436;DHT22;4255;48.730;9.156;2023-04-24T05:51:43;9.90;99.90
8436;DHT22;4255;48.730;9.156;2023-04-24T05:54:09;10.10;99.90
8436;DHT22;4255;48.730;9.156;2023-04-24T05:56:37;10.00;99.90
8436;DHT22;4255;48.730;9.156;2023-04-24T05:59:03;10.20;99.90
8436;DHT22;4255;48.730;9.156;2023-04-24T06:01:29;10.30;99.90
8436;DHT22;4255;48.730;9.156;2023-04-24T06:03:55;10.30;99.90
8436;DHT22;4255;48.730;9.156;2023-04-24T06:06:20;10.50;99.90
8436;DHT22;4255;48.730;9.156;2023-04-24T06:08:46;10.50;99.90
8436;DHT22;4255;48.730;9.156;2023-04-24T06:11:11;10.70;99.90
8436;DHT22;4255;48.730;9.156;2023-04-24T06:13:37;10.90;99.90
8436;DHT22;4255;48.730;9.156;2023-04-24T06:16:03;11.00;99.90
8436;DHT22;4255;48.730;9.156;2023-04-24T06:18:28;11.10;99.90
8436;DHT22;4255;48.730;9.156;2023-04-24T06:20:54;11.20;99.90
8436;DHT22;4255;48.730;9.156;2023-04-24T06:23:20;11.20;99.90
8436;DHT22;4255;48.730;9.156;2023-04-24T06:25:46;11.20;99.90
8436;DHT22;4255;48.730;9.156;2023-04-24T06:28:12;11.40;99.90
8436;DHT22;4255;48.730;9.156;2023-04-24T06:30:38;11.40;99.90
8436;DHT22;4255;48.730;9.156;2023-04-24T06:33:03;11.40;99.90
8436;DHT22;4255;48.730;9.156;2023-04-24T06:35:29;11.50;99.90
8436;DHT22;4255;48.730;9.156;2023-04-24T06:37:55;11.60;99.90
8436;DHT22;4255;48.730;9.156;2023-04-24T06:40:22;11.80;99.90
8436;DHT22;4255;48.730;9.156;2023-04-24T06:42:47;12.00;99.90
8436;DHT22;4255;48.730;9.156;2023-04-24T06:45:13;12.20;99.90
8436;DHT22;4255;48.730;9.156;2023-04-24T06:47:38;12.30;99.90
8436;DHT22;4255;48.730;9.156;2023-04-24T06:50:05;12.40;83.60
8436;DHT22;4255;48.730;9.156;2023-04-24T06:52:30;12.50;99.90
8436;DHT22;4255;48.730;9.156;2023-04-24T06:55:04;12.50;99.90
8436;DHT22;4255;48.730;9.156;2023-04-24T06:57:30;12.50;99.90
8436;DHT22;4255;48.730;9.156;2023-04-24T06:59:56;12.40;99.90
8436;DHT22;4255;48.730;9.156;2023-04-24T07:02:22;12.50;99.90
8436;DHT22;4255;48.730;9.156;2023-04-24T07:04:47;12.50;99.90
8436;DHT22;4255;48.730;9.156;2023-04-24T07:07:13;12.50;93.80
8436;DHT22;4255;48.730;9.156;2023-04-24T07:09:42;12.40;96.60
8436;DHT22;4255;48.730;9.156;2023-04-24T07:12:08;12.50;99.90
8436;DHT22;4255;48.730;9.156;2023-04-24T07:14:34;12.70;94.30
8436;DHT22;4255;48.730;9.156;2023-04-24T07:17:00;12.40;99.90
8436;DHT22;4255;48.730;9.156;2023-04-24T07:19:26;12.50;99.90
8436;DHT22;4255;48.730;9.156;2023-04-24T07:21:52;12.50;99.90
8436;DHT22;4255;48.730;9.156;2023-04-24T07:24:18;12.20;99.90
8436;DHT22;4255;48.730;9.156;2023-04-24T07:26:44;11.80;99.90
8436;DHT22;4255;48.730;9.156;2023-04-24T07:29:12;11.40;99.90
8436;DHT22;4255;48.730;9.156;2023-04-24T07:31:37;11.10;99.90
8436;DHT22;4255;48.730;9.156;2023-04-24T07:34:03;11.30;99.90
8436;DHT22;4255;48.730;9.156;2023-04-24T07:36:28;11.30;99.90
8436;DHT22;4255;48.730;9.156;2023-04-24T07:38:54;11.40;99.90
8436;DHT22;4255;48.730;9.156;2023-04-24T07:41:21;11.30;99.90
8436;DHT22;4255;48.730;9.156;2023-04-24T07:43:46;11.50;98.50
8436;DHT22;4255;48.730;9.156;2023-04-24T07:46:12;12.10;99.90
8436;DHT22;4255;48.730;9.156;2023-04-24T07:48:38;12.50;66.30
8436;DHT22;4255;48.730;9.156;2023-04-24T07:51:03;12.90;44.00
8436;DHT22;4255;48.730;9.156;2023-04-24T07:53:29;12.80;1.00
8436;DHT22;4255;48.730;9.156;2023-04-24T07:55:55;12.50;1.00
8436;DHT22;4255;48.730;9.156;2023-04-24T07:58:21;12.20;1.00
8436;DHT22;4255;48.730;9.156;2023-04-24T08:00:47;11.80;1.00
8436;DHT22;4255;48.730;9.156;2023-04-24T08:03:13;11.60;1.00
8436;DHT22;4255;48.730;9.156;2023-04-24T08:05:39;11.60;1.00
8436;DHT22;4255;48.730;9.156;2023-04-24T08:08:04;11.50;1.00
8436;DHT22;4255;48.730;9.156;2023-04-24T08:10:30;11.60;1.00
8436;DHT22;4255;48.730;9.156;2023-04-24T08:12:56;11.30;1.00
8436;DHT22;4255;48.730;9.156;2023-04-24T08:15:21;11.20;1.00
8436;DHT22;4255;48.730;9.156;2023-04-24T08:17:47;11.00;1.00
8436;DHT22;4255;48.730;9.156;2023-04-24T08:20:13;11.00;1.00
8436;DHT22;4255;48.730;9.156;2023-04-24T08:22:39;11.30;1.00
8436;DHT22;4255;48.730;9.156;2023-04-24T08:25:06;11.40;1.00
8436;DHT22;4255;48.730;9.156;2023-04-24T08:27:32;11.20;1.00
8436;DHT22;4255;48.730;9.156;2023-04-24T08:29:57;11.00;1.00
8436;DHT22;4255;48.730;9.156;2023-04-24T08:32:24;11.10;1.00
8436;DHT22;4255;48.730;9.156;2023-04-24T08:34:49;11.30;1.00
8436;DHT22;4255;48.730;9.156;2023-04-24T08:37:17;11.50;1.00
8436;DHT22;4255;48.730;9.156;2023-04-24T08:39:43;11.60;1.00
8436;DHT22;4255;48.730;9.156;2023-04-24T08:42:09;11.80;1.00
8436;DHT22;4255;48.730;9.156;2023-04-24T08:44:36;11.80;1.00
8436;DHT22;4255;48.730;9.156;2023-04-24T08:47:03;12.10;1.00
8436;DHT22;4255;48.730;9.156;2023-04-24T08:49:29;12.20;1.00
8436;DHT22;4255;48.730;9.156;2023-04-24T08:51:55;11.90;1.00
8436;DHT22;4255;48.730;9.156;2023-04-24T08:54:21;12.00;1.00
8436;DHT22;4255;48.730;9.156;2023-04-24T08:56:48;11.90;1.00
8436;DHT22;4255;48.730;9.156;2023-04-24T08:59:14;12.00;1.00
8436;DHT22;4255;48.730;9.156;2023-04-24T09:01:41;11.80;99.90
8436;DHT22;4255;48.730;9.156;2023-04-24T09:04:08;12.00;1.00
8436;DHT22;4255;48.730;9.156;2023-04-24T09:06:35;12.00;1.00
8436;DHT22;4255;48.730;9.156;2023-04-24T09:09:01;12.40;1.00
8436;DHT22;4255;48.730;9.156;2023-04-24T09:11:27;12.50;1.00
8436;DHT22;4255;48.730;9.156;2023-04-24T09:13:56;12.60;1.00
8436;DHT22;4255;48.730;9.156;2023-04-24T09:16:22;12.60;1.00
8436;DHT22;4255;48.730;9.156;2023-04-24T09:18:50;12.20;1.00
8436;DHT22;4255;48.730;9.156;2023-04-24T09:21:15;11.70;1.00
8436;DHT22;4255;48.730;9.156;2023-04-24T09:23:41;11.90;1.00
8436;DHT22;4255;48.730;9.156;2023-04-24T09:26:09;12.00;1.00
8436;DHT22;4255;48.730;9.156;2023-04-24T09:28:36;11.90;1.00
8436;DHT22;4255;48.730;9.156;2023-04-24T09:31:13;11.60;1.00
8436;DHT22;4255;48.730;9.156;2023-04-24T09:33:58;11.50;99.90
8436;DHT22;4255;48.730;9.156;2023-04-24T09:36:38;11.40;1.00
8436;DHT22;4255;48.730;9.156;2023-04-24T09:39:06;12.00;99.90
8436;DHT22;4255;48.730;9.156;2023-04-24T09:41:33;12.30;1.00
8436;DHT22;4255;48.730;9.156;2023-04-24T09:44:12;12.40;99.90
8436;DHT22;4255;48.730;9.156;2023-04-24T09:46:38;12.50;35.40
8436;DHT22;4255;48.730;9.156;2023-04-24T09:49:12;12.80;1.00
8436;DHT22;4255;48.730;9.156;2023-04-24T09:51:39;12.80;99.90
8436;DHT22;4255;48.730;9.156;2023-04-24T09:54:15;12.70;1.00
8436;DHT22;4255;48.730;9.156;2023-04-24T09:56:49;12.50;1.00
8436;DHT22;4255;48.730;9.156;2023-04-24T09:59:17;12.00;58.80
8436;DHT22;4255;48.730;9.156;2023-04-24T10:01:43;11.90;99.90
8436;DHT22;4255;48.730;9.156;2023-04-24T10:04:30;12.00;26.70
8436;DHT22;4255;48.730;9.156;2023-04-24T10:06:57;12.20;1.00
8436;DHT22;4255;48.730;9.156;2023-04-24T10:09:24;12.40;99.90
8436;DHT22;4255;48.730;9.156;2023-04-24T10:11:54;12.30;1.00
8436;DHT22;4255;48.730;9.156;2023-04-24T10:14:21;12.20;1.00
8436;DHT22;4255;48.730;9.156;2023-04-24T10:16:48;12.30;1.00
8436;DHT22;4255;48.730;9.156;2023-04-24T10:19:15;12.20;1.00
8436;DHT22;4255;48.730;9.156;2023-04-24T10:21:42;12.40;99.90
8436;DHT22;4255;48.730;9.156;2023-04-24T10:24:15;12.80;61.20
8436;DHT22;4255;48.730;9.156;2023-04-24T10:26:42;12.90;90.00
8436;DHT22;4255;48.730;9.156;2023-04-24T10:29:08;12.60;99.90
8436;DHT22;4255;48.730;9.156;2023-04-24T10:31:36;12.80;1.00
8436;DHT22;4255;48.730;9.156;2023-04-24T10:34:04;13.20;99.90
8436;DHT22;4255;48.730;9.156;2023-04-24T10:36:31;13.10;1.00
8436;DHT22;4255;48.730;9.156;2023-04-24T10:39:00;12.80;99.90
8436;DHT22;4255;48.730;9.156;2023-04-24T10:41:26;12.80;99.90
8436;DHT22;4255;48.730;9.156;2023-04-24T10:44:11;12.40;1.00
8436;DHT22;4255;48.730;9.156;2023-04-24T10:46:38;12.60;1.00
8436;DHT22;4255;48.730;9.156;2023-04-24T10:49:06;12.40;1.00
8436;DHT22;4255;48.730;9.156;2023-04-24T10:51:51;12.20;99.90
8436;DHT22;4255;48.730;9.156;2023-04-24T10:59:47;11.90;1.00
8436;DHT22;4255;48.730;9.156;2023-04-24T11:02:16;11.70;1.00
8436;DHT22;4255;48.730;9.156;2023-04-24T11:04:43;11.60;99.90
8436;DHT22;4255;48.730;9.156;2023-04-24T11:07:09;11.70;22.90
8436;DHT22;4255;48.730;9.156;2023-04-24T11:09:36;11.50;99.90
8436;DHT22;4255;48.730;9.156;2023-04-24T11:12:09;11.40;1.00
8436;DHT22;4255;48.730;9.156;2023-04-24T11:17:33;11.30;99.90
8436;DHT22;4255;48.730;9.156;2023-04-24T11:20:07;11.30;1.00
8436;DHT22;4255;48.730;9.156;2023-04-24T11:22:35;11.20;99.90
8436;DHT22;4255;48.730;9.156;2023-04-24T11:25:02;11.30;1.00
8436;DHT22;4255;48.730;9.156;2023-04-24T11:27:47;11.50;99.90
8436;DHT22;4255;48.730;9.156;2023-04-24T11:30:18;11.70;1.00
8436;DHT22;4255;48.730;9.156;2023-04-24T11:32:48;11.80;1.00
8436;DHT22;4255;48.730;9.156;2023-04-24T11:35:20;11.90;1.00
8436;DHT22;4255;48.730;9.156;2023-04-24T11:37:51;12.20;1.00
8436;DHT22;4255;48.730;9.156;2023-04-24T11:40:19;12.50;1.00
8436;DHT22;4255;48.730;9.156;2023-04-24T11:42:49;12.50;99.90
8436;DHT22;4255;48.730;9.156;2023-04-24T11:45:22;12.50;18.50
8436;DHT22;4255;48.730;9.156;2023-04-24T11:47:47;12.30;99.90
8436;DHT22;4255;48.730;9.156;2023-04-24T11:50:17;12.00;99.90
8436;DHT22;4255;48.730;9.156;2023-04-24T11:52:45;11.70;1.00
8436;DHT22;4255;48.730;9.156;2023-04-24T11:57:42;11.60;99.90
8436;DHT22;4255;48.730;9.156;2023-04-24T12:00:25;11.90;1.00
8436;DHT22;4255;48.730;9.156;2023-04-24T12:02:51;12.10;1.00
8436;DHT22;4255;48.730;9.156;2023-04-24T12:05:27;12.40;99.90
8436;DHT22;4255;48.730;9.156;2023-04-24T12:07:54;12.60;1.00
8436;DHT22;4255;48.730;9.156;2023-04-24T12:10:21;12.70;1.00
8436;DHT22;4255;48.730;9.156;2023-04-24T12:12:47;12.50;1.00
8436;DHT22;4255;48.730;9.156;2023-04-24T12:15:12;12.20;1.00
8436;DHT22;4255;48.730;9.156;2023-04-24T12:17:41;11.90;9.50
8436;DHT22;4255;48.730;9.156;2023-04-24T12:20:08;11.80;99.90
8436;DHT22;4255;48.730;9.156;2023-04-24T12:22:49;11.50;99.90
8436;DHT22;4255;48.730;9.156;2023-04-24T12:25:16;11.40;1.00
8436;DHT22;4255;48.730;9.156;2023-04-24T12:27:44;11.50;1.00
8436;DHT22;4255;48.730;9.156;2023-04-24T12:30:15;11.70;99.90
8436;DHT22;4255;48.730;9.156;2023-04-24T12:32:43;11.80;1.00
8436;DHT22;4255;48.730;9.156;2023-04-24T12:35:09;12.00;1.00
8436;DHT22;4255;48.730;9.156;2023-04-24T12:37:34;12.00;99.90
8436;DHT22;4255;48.730;9.156;2023-04-24T12:40:09;12.10;99.90
8436;DHT22;4255;48.730;9.156;2023-04-24T12:42:46;12.20;1.00
8436;DHT22;4255;48.730;9.156;2023-04-24T12:45:12;12.40;1.00
8436;DHT22;4255;48.730;9.156;2023-04-24T12:47:40;12.40;1.00
8436;DHT22;4255;48.730;9.156;2023-04-24T12:50:10;12.50;1.00
8436;DHT22;4255;48.730;9.156;2023-04-24T12:52:36;12.50;92.30
8436;DHT22;4255;48.730;9.156;2023-04-24T12:55:02;12.30;19.90
8436;DHT22;4255;48.730;9.156;2023-04-24T12:57:29;11.60;99.90
8436;DHT22;4255;48.730;9.156;2023-04-24T12:59:59;11.40;1.00
8436;DHT22;4255;48.730;9.156;2023-04-24T13:02:26;11.60;1.00
8436;DHT22;4255;48.730;9.156;2023-04-24T13:04:52;11.60;1.00
8436;DHT22;4255;48.730;9.156;2023-04-24T13:07:18;11.30;1.00
8436;DHT22;4255;48.730;9.156;2023-04-24T13:09:44;11.40;1.00
8436;DHT22;4255;48.730;9.156;2023-04-24T13:12:11;11.40;1.00
8436;DHT22;4255;48.730;9.156;2023-04-24T13:14:36;11.20;1.00
8436;DHT22;4255;48.730;9.156;2023-04-24T13:17:03;11.10;1.00
8436;DHT22;4255;48.730;9.156;2023-04-24T13:19:29;11.00;64.00
8436;DHT22;4255;48.730;9.156;2023-04-24T13:21:55;11.20;80.90
8436;DHT22;4255;48.730;9.156;2023-04-24T13:24:23;11.30;50.30
8436;DHT22;4255;48.730;9.156;2023-04-24T13:26:52;11.40;41.80
8436;DHT22;4255;48.730;9.156;2023-04-24T13:29:18;11.70;29.20
8436;DHT22;4255;48.730;9.156;2023-04-24T13:31:43;11.90;1.80
8436;DHT22;4255;48.730;9.156;2023-04-24T13:34:09;12.00;6.40
8436;DHT22;4255;48.730;9.156;2023-04-24T13:36:35;12.00;1.00
8436;DHT22;4255;48.730;9.156;2023-04-24T13:39:02;11.60;1.00
8436;DHT22;4255;48.730;9.156;2023-04-24T13:41:29;11.60;1.00
8436;DHT22;4255;48.730;9.156;2023-04-24T13:43:55;11.40;1.00
8436;DHT22;4255;48.730;9.156;2023-04-24T13:46:21;11.40;1.00
8436;DHT22;4255;48.730;9.156;2023-04-24T13:48:47;11.40;1.00
8436;DHT22;4255;48.730;9.156;2023-04-24T13:51:12;11.20;9.80
8436;DHT22;4255;48.730;9.156;2023-04-24T13:53:38;11.20;33.30
8436;DHT22;4255;48.730;9.156;2023-04-24T13:56:04;11.10;39.00
8436;DHT22;4255;48.730;9.156;2023-04-24T13:58:31;10.80;99.90
8436;DHT22;4255;48.730;9.156;2023-04-24T14:00:57;10.90;99.90
8436;DHT22;4255;48.730;9.156;2023-04-24T14:03:23;10.90;99.90
8436;DHT22;4255;48.730;9.156;2023-04-24T14:05:48;11.10;99.90
8436;DHT22;4255;48.730;9.156;2023-04-24T14:08:14;11.20;99.90
8436;DHT22;4255;48.730;9.156;2023-04-24T14:10:39;11.50;99.90
8436;DHT22;4255;48.730;9.156;2023-04-24T14:13:05;12.10;99.90
8436;DHT22;4255;48.730;9.156;2023-04-24T14:15:31;12.10;1.00
8436;DHT22;4255;48.730;9.156;2023-04-24T14:17:57;11.40;1.00
8436;DHT22;4255;48.730;9.156;2023-04-24T14:20:23;11.00;29.40
8436;DHT22;4255;48.730;9.156;2023-04-24T14:22:48;10.70;48.50
8436;DHT22;4255;48.730;9.156;2023-04-24T14:25:14;10.60;81.20
8436;DHT22;4255;48.730;9.156;2023-04-24T14:27:40;10.60;93.70
8436;DHT22;4255;48.730;9.156;2023-04-24T14:30:06;10.40;99.90
8436;DHT22;4255;48.730;9.156;2023-04-24T14:32:32;10.30;99.90
8436;DHT22;4255;48.730;9.156;2023-04-24T14:34:58;10.30;99.90
8436;DHT22;4255;48.730;9.156;2023-04-24T14:37:24;10.30;99.90
8436;DHT22;4255;48.730;9.156;2023-04-24T14:39:49;10.50;99.90
8436;DHT22;4255;48.730;9.156;2023-04-24T14:42:15;10.80;99.90
8436;DHT22;4255;48.730;9.156;2023-04-24T14:44:42;11.00;99.90
8436;DHT22;4255;48.730;9.156;2023-04-24T14:47:07;11.40;99.90
8436;DHT22;4255;48.730;9.156;2023-04-24T14:49:33;11.60;71.80
8436;DHT22;4255;48.730;9.156;2023-04-24T14:51:59;11.70;98.00
8436;DHT22;4255;48.730;9.156;2023-04-24T14:54:24;11.50;65.10
8436;DHT22;4255;48.730;9.156;2023-04-24T14:56:50;11.30;57.50
8436;DHT22;4255;48.730;9.156;2023-04-24T14:59:16;11.20;84.60
8436;DHT22;4255;48.730;9.156;2023-04-24T15:01:42;11.60;41.10
8436;DHT22;4255;48.730;9.156;2023-04-24T15:04:07;12.00;5.60
8436;DHT22;4255;48.730;9.156;2023-04-24T15:06:33;12.20;1.00
8436;DHT22;4255;48.730;9.156;2023-04-24T15:08:59;12.40;1.00
8436;DHT22;4255;48.730;9.156;2023-04-24T15:11:25;12.40;1.00
8436;DHT22;4255;48.730;9.156;2023-04-24T15:13:50;12.10;1.00
8436;DHT22;4255;48.730;9.156;2023-04-24T15:16:16;12.00;1.00
8436;DHT22;4255;48.730;9.156;2023-04-24T15:18:42;12.00;1.00
8436;DHT22;4255;48.730;9.156;2023-04-24T15:21:07;11.80;1.00
8436;DHT22;4255;48.730;9.156;2023-04-24T15:23:33;11.90;1.00
8436;DHT22;4255;48.730;9.156;2023-04-24T15:25:59;11.60;1.00
8436;DHT22;4255;48.730;9.156;2023-04-24T15:31:02;11.70;1.00
8436;DHT22;4255;48.730;9.156;2023-04-24T15:33:28;11.70;1.00
8436;DHT22;4255;48.730;9.156;2023-04-24T15:35:54;11.80;1.00
8436;DHT22;4255;48.730;9.156;2023-04-24T15:38:19;11.60;1.00
8436;DHT22;4255;48.730;9.156;2023-04-24T15:40:45;11.70;1.00
8436;DHT22;4255;48.730;9.156;2023-04-24T15:43:11;11.50;1.00
8436;DHT22;4255;48.730;9.156;2023-04-24T15:45:36;11.00;30.60
8436;DHT22;4255;48.730;9.156;2023-04-24T15:48:02;10.80;98.20
8436;DHT22;4255;48.730;9.156;2023-04-24T15:50:28;10.80;99.90
8436;DHT22;4255;48.730;9.156;2023-04-24T15:52:53;10.90;92.40
8436;DHT22;4255;48.730;9.156;2023-04-24T15:55:19;11.00;31.40
8436;DHT22;4255;48.730;9.156;2023-04-24T15:57:45;11.10;89.90
8436;DHT22;4255;48.730;9.156;2023-04-24T16:00:11;11.30;99.90
8436;DHT22;4255;48.730;9.156;2023-04-24T16:02:37;11.30;77.20
8436;DHT22;4255;48.730;9.156;2023-04-24T16:05:02;11.40;99.90
8436;DHT22;4255;48.730;9.156;2023-04-24T16:07:28;11.70;99.90
8436;DHT22;4255;48.730;9.156;2023-04-24T16:09:54;11.90;39.90
8436;DHT22;4255;48.730;9.156;2023-04-24T16:12:20;12.20;42.50
8436;DHT22;4255;48.730;9.156;2023-04-24T16:14:45;12.00;4.00
8436;DHT22;4255;48.730;9.156;2023-04-24T16:17:11;12.00;14.80
8436;DHT22;4255;48.730;9.156;2023-04-24T16:19:36;12.00;21.50
8436;DHT22;4255;48.730;9.156;2023-04-24T16:22:02;11.90;36.40